Hodgeville, Canada
Current Conditions -  °F | °C
As of 7:00 PM on Wednesday 22 Oct 2014 (Local Time) from CYYN Reporting Station
Clear Clear  
Wind Chill: 42°   Ceiling: Unl
Heat Index: 46°   Visibility: 9mi
Dew Point: 36°   Wind: 9mph
Humidity: 66%   Direction: 240°WSW
Pressure: 29.79"   Gusts: NA
Location:  50.12°N, 106.98°W
Report Text: CYYN 230100Z AUTO 24008KT 9SM CLR 08/02 A2979 RMK SLP102
Loading
Personal Weather Stations






























Interactive Weather Map
Tropical Storm Tracking
New forecast layout! Learn more

10-Day Weather Forecast

Advertisements
Track Severe Weather on mobile